createdAt,value
2022-08-20T00:02:19.515Z,47.36
2022-08-20T00:04:52.041Z,47.57
2022-08-20T00:07:24.076Z,46.91
2022-08-20T00:09:56.076Z,47.00
2022-08-20T00:12:28.090Z,47.25
2022-08-20T00:15:00.518Z,47.49
2022-08-20T00:17:41.460Z,47.58
2022-08-20T00:20:13.995Z,47.46
2022-08-20T00:22:47.016Z,47.76
2022-08-20T00:25:19.818Z,47.99
2022-08-20T00:27:51.915Z,48.93
2022-08-20T00:30:26.520Z,47.93
2022-08-20T00:33:08.147Z,47.59
2022-08-20T00:35:46.397Z,47.83
2022-08-20T00:38:19.735Z,52.99
2022-08-20T00:40:58.096Z,55.78
2022-08-20T00:43:45.712Z,60.60
2022-08-20T00:46:27.925Z,64.61
2022-08-20T00:49:08.701Z,67.98
2022-08-20T00:51:54.755Z,70.24
2022-08-20T00:54:50.317Z,71.90
2022-08-20T00:57:44.478Z,73.44
2022-08-20T01:00:34.494Z,75.06
2022-08-20T01:03:10.003Z,75.56
2022-08-20T01:05:47.112Z,77.20
2022-08-20T01:08:24.690Z,77.77
2022-08-20T01:11:09.454Z,79.03
2022-08-20T01:13:44.385Z,79.03
2022-08-20T01:16:24.191Z,78.81
2022-08-20T01:18:57.742Z,79.17
2022-08-20T01:21:33.589Z,78.59
2022-08-20T01:24:22.497Z,79.06
2022-08-20T01:26:55.507Z,79.66
2022-08-20T01:29:35.987Z,79.80
2022-08-20T01:32:08.007Z,80.36
2022-08-20T01:34:40.239Z,81.15
2022-08-20T01:37:12.279Z,81.36
2022-08-20T01:39:44.295Z,81.90
2022-08-20T01:42:20.735Z,83.58
2022-08-20T01:44:52.995Z,85.58
2022-08-20T01:47:36.454Z,87.89
2022-08-20T01:50:23.267Z,89.88
2022-08-20T01:53:18.911Z,92.77
2022-08-20T01:55:51.089Z,94.08
2022-08-20T01:58:23.114Z,95.31
2022-08-20T02:00:55.653Z,95.75
2022-08-20T02:03:27.798Z,96.56
2022-08-20T02:06:02.195Z,95.62
2022-08-20T02:08:34.282Z,96.11
2022-08-20T02:11:07.033Z,95.26
2022-08-20T02:13:40.709Z,96.44
2022-08-20T02:16:12.702Z,96.94
2022-08-20T02:18:44.964Z,96.22
2022-08-20T02:21:17.517Z,96.06
2022-08-20T02:23:49.645Z,95.10
2022-08-20T02:26:22.551Z,94.87
2022-08-20T02:28:55.820Z,95.16
2022-08-20T02:31:31.764Z,95.90
2022-08-20T02:34:21.994Z,95.98
2022-08-20T02:36:54.995Z,95.77
2022-08-20T02:39:27.525Z,94.95
2022-08-20T02:41:59.877Z,93.93
2022-08-20T02:44:32.316Z,94.20
2022-08-20T02:47:05.877Z,95.01
2022-08-20T02:49:37.938Z,94.13
2022-08-20T02:52:09.933Z,94.07
2022-08-20T02:54:42.042Z,93.83
2022-08-20T02:57:15.769Z,93.84
2022-08-20T02:59:48.582Z,94.20
2022-08-20T03:02:21.650Z,95.05
2022-08-20T03:04:53.646Z,94.49
2022-08-20T03:07:25.629Z,94.69
2022-08-20T03:09:57.635Z,94.00
2022-08-20T03:12:29.596Z,94.41
2022-08-20T03:15:01.838Z,93.90
2022-08-20T03:17:33.794Z,94.39
2022-08-20T03:20:08.638Z,94.09
2022-08-20T03:22:41.109Z,94.39
2022-08-20T03:25:13.187Z,95.34
2022-08-20T03:27:47.183Z,96.08
2022-08-20T03:30:28.770Z,96.13
2022-08-20T03:33:01.056Z,96.19
2022-08-20T03:35:36.301Z,95.99
2022-08-20T03:38:11.115Z,95.89
2022-08-20T03:40:43.468Z,95.57
2022-08-20T03:43:16.092Z,95.35
2022-08-20T03:45:48.320Z,96.09
2022-08-20T03:48:21.745Z,96.22
2022-08-20T03:50:56.610Z,96.12
2022-08-20T03:53:31.921Z,95.57
2022-08-20T03:56:06.533Z,94.81
2022-08-20T03:58:38.626Z,93.30
2022-08-20T04:01:36.899Z,93.46
2022-08-20T04:04:02.813Z,92.98
2022-08-20T04:06:34.908Z,92.87
2022-08-20T04:09:06.869Z,92.32
2022-08-20T04:11:42.421Z,92.27
2022-08-20T04:14:18.465Z,90.83
2022-08-20T04:16:50.872Z,91.99
2022-08-20T04:19:23.697Z,91.15
2022-08-20T04:21:55.671Z,91.35
2022-08-20T04:24:32.184Z,90.56
2022-08-20T04:27:05.422Z,90.65
2022-08-20T04:29:43.079Z,91.01
2022-08-20T04:32:15.174Z,90.49
2022-08-20T04:34:52.187Z,90.17
2022-08-20T04:37:24.854Z,90.28
2022-08-20T04:40:15.187Z,89.34
2022-08-20T04:42:47.301Z,90.26
2022-08-20T04:45:25.433Z,89.48
2022-08-20T04:47:57.750Z,89.40
2022-08-20T04:50:29.832Z,89.37
2022-08-20T04:53:09.351Z,89.87
2022-08-20T04:55:43.026Z,89.97
2022-08-20T04:58:28.042Z,90.60
2022-08-20T05:01:07.050Z,89.78
2022-08-20T05:03:41.268Z,90.61
2022-08-20T05:06:13.334Z,91.23
2022-08-20T05:08:45.619Z,91.12
2022-08-20T05:11:36.109Z,90.71
2022-08-20T05:14:09.690Z,90.87
2022-08-20T05:16:41.779Z,91.19
2022-08-20T05:19:13.861Z,91.91
2022-08-20T05:21:45.826Z,92.10
2022-08-20T05:24:17.797Z,93.13
2022-08-20T05:26:49.772Z,93.66
2022-08-20T05:29:23.409Z,94.64
2022-08-20T05:31:56.630Z,94.77
2022-08-20T05:34:28.798Z,95.13
2022-08-20T05:37:04.486Z,95.28
2022-08-20T05:39:39.820Z,95.46
2022-08-20T05:42:12.179Z,94.91
2022-08-20T05:44:46.456Z,94.08
2022-08-20T05:47:18.474Z,94.50
2022-08-20T05:49:52.224Z,95.29
2022-08-20T05:52:24.326Z,95.32
2022-08-20T05:54:56.339Z,93.79
2022-08-20T05:57:28.301Z,94.53
2022-08-20T06:00:02.872Z,94.28
2022-08-20T06:02:53.168Z,93.98
2022-08-20T06:05:25.791Z,94.34
2022-08-20T06:07:57.899Z,93.96
2022-08-20T06:10:42.609Z,92.28
2022-08-20T06:13:15.261Z,92.76
2022-08-20T06:15:47.575Z,92.54
2022-08-20T06:18:28.261Z,91.06
2022-08-20T06:21:00.868Z,91.87
2022-08-20T06:23:40.178Z,90.82
2022-08-20T06:26:30.480Z,89.18
2022-08-20T06:29:05.873Z,90.11
2022-08-20T06:31:40.056Z,90.07
2022-08-20T06:34:13.239Z,89.54
2022-08-20T06:36:46.927Z,90.65
2022-08-20T06:39:18.884Z,90.20
2022-08-20T06:41:51.944Z,89.61
2022-08-20T06:44:26.051Z,89.05
2022-08-20T06:47:02.285Z,88.86
2022-08-20T06:49:37.441Z,86.97
2022-08-20T06:52:09.825Z,88.12
2022-08-20T06:54:45.806Z,87.22
2022-08-20T06:57:17.810Z,88.17
2022-08-20T06:59:54.318Z,87.27
2022-08-20T07:02:29.274Z,85.35
2022-08-20T07:05:04.933Z,86.33
2022-08-20T07:07:37.683Z,85.77
2022-08-20T07:10:13.697Z,84.19
2022-08-20T07:12:47.061Z,83.36
2022-08-20T07:15:23.084Z,82.90
2022-08-20T07:18:01.679Z,81.37
2022-08-20T07:20:37.172Z,80.42
2022-08-20T07:23:12.164Z,81.25
2022-08-20T07:25:44.693Z,82.12
2022-08-20T07:28:23.251Z,81.90
2022-08-20T07:31:16.009Z,81.23
2022-08-20T07:33:50.330Z,81.18
2022-08-20T07:36:23.243Z,79.75
2022-08-20T07:38:57.044Z,77.98
2022-08-20T07:41:29.100Z,78.33
2022-08-20T07:44:01.170Z,77.76
2022-08-20T07:46:33.371Z,76.58
2022-08-20T07:49:10.061Z,75.12
2022-08-20T07:51:42.137Z,75.52
2022-08-20T07:54:14.112Z,74.88
2022-08-20T07:56:46.166Z,73.88
2022-08-20T07:59:21.804Z,74.24
2022-08-20T08:01:53.800Z,74.21
2022-08-20T08:04:26.167Z,72.44
2022-08-20T08:07:00.265Z,73.08
2022-08-20T08:09:33.838Z,73.73
2022-08-20T08:12:06.259Z,72.96
2022-08-20T08:14:40.488Z,72.76
2022-08-20T08:17:13.245Z,73.39
2022-08-20T08:19:49.486Z,73.73
2022-08-20T08:22:21.496Z,72.22
2022-08-20T08:24:57.069Z,72.41
2022-08-20T08:27:32.677Z,71.35
2022-08-20T08:30:05.616Z,71.88
2022-08-20T08:32:58.519Z,72.36
2022-08-20T08:35:33.309Z,70.13
2022-08-20T08:38:05.705Z,68.49
2022-08-20T08:40:38.467Z,67.34
2022-08-20T08:43:13.865Z,67.26
2022-08-20T08:46:01.598Z,67.75
2022-08-20T08:48:39.198Z,67.20
2022-08-20T08:51:16.374Z,65.89
2022-08-20T08:53:54.872Z,66.49
2022-08-20T08:56:31.300Z,65.19
2022-08-20T08:59:08.685Z,63.36
2022-08-20T09:01:55.063Z,64.33
2022-08-20T09:04:37.219Z,60.85
2022-08-20T09:07:15.304Z,62.39
2022-08-20T09:09:47.539Z,62.28
2022-08-20T09:12:24.808Z,61.25
2022-08-20T09:14:57.464Z,61.33
2022-08-20T09:17:29.455Z,59.99
2022-08-20T09:20:01.434Z,57.89
2022-08-20T09:22:33.687Z,57.08
2022-08-20T09:25:06.547Z,56.57
2022-08-20T09:27:38.863Z,59.33
2022-08-20T09:30:15.319Z,53.46
2022-08-20T09:32:47.424Z,48.11
2022-08-20T09:35:19.410Z,45.61
2022-08-20T09:37:52.847Z,43.86
2022-08-20T09:40:24.919Z,43.78
2022-08-20T09:42:57.153Z,41.81
2022-08-20T09:45:29.426Z,41.92
2022-08-20T09:48:01.660Z,39.51
2022-08-20T09:50:36.491Z,40.31
2022-08-20T09:53:09.889Z,40.46
2022-08-20T09:55:50.151Z,38.74
2022-08-20T09:58:49.171Z,39.16
2022-08-20T10:01:22.804Z,39.06
2022-08-20T10:03:54.849Z,41.00
2022-08-20T10:06:26.966Z,40.45
2022-08-20T10:08:59.612Z,40.26
2022-08-20T10:11:31.623Z,39.06
2022-08-20T10:14:05.002Z,39.28
2022-08-20T10:16:37.759Z,37.06
2022-08-20T10:19:09.750Z,35.99
2022-08-20T10:21:41.752Z,35.42
2022-08-20T10:24:14.745Z,34.74
2022-08-20T10:26:47.805Z,36.14
2022-08-20T10:29:19.788Z,36.45
2022-08-20T10:31:51.966Z,36.79
2022-08-20T10:34:25.694Z,38.49
2022-08-20T10:36:59.066Z,37.84
2022-08-20T10:39:31.626Z,36.80
2022-08-20T10:42:03.956Z,36.16
2022-08-20T10:44:36.018Z,34.68
2022-08-20T10:47:31.502Z,33.55
2022-08-20T10:50:08.809Z,30.27
2022-08-20T10:52:41.030Z,30.16
2022-08-20T10:55:13.222Z,29.96
2022-08-20T10:57:45.714Z,29.37
2022-08-20T11:00:19.528Z,29.03
2022-08-20T11:02:51.986Z,27.36
2022-08-20T11:05:24.073Z,25.66
2022-08-20T11:07:56.865Z,24.55
2022-08-20T11:10:31.078Z,23.56
2022-08-20T11:13:06.210Z,22.91
2022-08-20T11:15:42.249Z,21.53
2022-08-20T11:18:14.517Z,19.89
2022-08-20T11:20:46.769Z,19.48
2022-08-20T11:23:18.733Z,18.85
2022-08-20T11:25:51.231Z,18.25
2022-08-20T11:28:31.325Z,18.17
2022-08-20T11:31:04.575Z,18.02
2022-08-20T11:33:36.558Z,16.30
2022-08-20T11:36:09.006Z,17.05
2022-08-20T11:38:40.999Z,17.31
2022-08-20T11:41:13.159Z,17.32
2022-08-20T11:43:55.140Z,16.42
2022-08-20T11:46:37.121Z,16.06
2022-08-20T11:49:09.287Z,16.25
2022-08-20T11:51:49.900Z,16.32
2022-08-20T11:54:22.294Z,15.31
2022-08-20T11:56:57.925Z,15.33
2022-08-20T11:59:29.937Z,16.33
2022-08-20T12:02:02.968Z,15.71
2022-08-20T12:04:42.360Z,15.46
2022-08-20T12:07:19.013Z,15.92
2022-08-20T12:09:51.636Z,16.32
2022-08-20T12:12:24.271Z,16.24
2022-08-20T12:14:56.265Z,15.08
2022-08-20T12:17:30.370Z,15.70
2022-08-20T12:20:10.060Z,16.22
2022-08-20T12:22:43.959Z,16.73
2022-08-20T12:25:16.436Z,16.01
2022-08-20T12:27:48.453Z,15.85
2022-08-20T12:30:23.818Z,16.03
2022-08-20T12:32:56.047Z,15.96
2022-08-20T12:35:28.214Z,15.74
2022-08-20T12:38:05.893Z,15.60
2022-08-20T12:40:38.167Z,15.04
2022-08-20T12:43:10.273Z,15.27
2022-08-20T12:45:42.308Z,16.87
2022-08-20T12:48:14.419Z,16.74
2022-08-20T12:50:46.519Z,16.10
2022-08-20T12:53:19.055Z,16.36
2022-08-20T12:55:51.130Z,16.05
2022-08-20T12:58:23.158Z,16.63
2022-08-20T13:00:55.148Z,15.97
2022-08-20T13:03:27.213Z,16.77
2022-08-20T13:06:04.283Z,18.02
2022-08-20T13:08:36.286Z,18.63
2022-08-20T13:11:08.238Z,19.56
2022-08-20T13:13:40.307Z,20.77
2022-08-20T13:16:12.482Z,21.46
2022-08-20T13:18:45.547Z,22.57
2022-08-20T13:21:21.070Z,22.72
2022-08-20T13:23:55.468Z,23.38
2022-08-20T13:26:27.471Z,22.84
2022-08-20T13:28:59.483Z,23.11
2022-08-20T13:31:32.875Z,24.59
2022-08-20T13:34:04.946Z,24.29
2022-08-20T13:36:37.174Z,25.70
2022-08-20T13:39:09.231Z,25.69
2022-08-20T13:41:41.273Z,25.14
2022-08-20T13:44:13.430Z,25.93
2022-08-20T13:46:47.269Z,24.73
2022-08-20T13:49:19.273Z,25.25
2022-08-20T13:51:52.213Z,25.31
2022-08-20T13:54:28.289Z,25.45
2022-08-20T13:57:12.651Z,24.09
2022-08-20T13:59:49.323Z,24.20
2022-08-20T14:02:22.406Z,26.24
2022-08-20T14:04:55.169Z,26.44
2022-08-20T14:07:32.481Z,26.75
2022-08-20T14:10:13.852Z,27.12
2022-08-20T14:12:46.045Z,27.24
2022-08-20T14:15:18.527Z,27.36
2022-08-20T14:17:54.086Z,27.70
2022-08-20T14:20:32.219Z,27.51
2022-08-20T14:23:04.428Z,27.43
2022-08-20T14:25:39.375Z,28.15
2022-08-20T14:28:21.718Z,28.07
2022-08-20T14:30:53.939Z,28.66
2022-08-20T14:33:25.964Z,28.41
2022-08-20T14:35:57.960Z,28.68
2022-08-20T14:38:29.957Z,28.34
2022-08-20T14:41:01.999Z,28.30
2022-08-20T14:43:33.972Z,29.03
2022-08-20T14:46:06.142Z,30.03
2022-08-20T14:48:38.234Z,30.24
2022-08-20T14:51:10.670Z,30.41
2022-08-20T14:53:42.615Z,30.92
2022-08-20T14:56:15.739Z,30.07
2022-08-20T14:58:47.771Z,30.21
2022-08-20T15:01:20.010Z,29.95
2022-08-20T15:03:52.078Z,30.06
2022-08-20T15:06:25.348Z,29.83
2022-08-20T15:08:57.677Z,30.40
2022-08-20T15:11:33.937Z,30.11
2022-08-20T15:14:08.207Z,29.28
2022-08-20T15:16:40.876Z,29.83
2022-08-20T15:19:13.141Z,29.96
2022-08-20T15:21:45.872Z,30.39
2022-08-20T15:24:19.383Z,30.40
2022-08-20T15:26:51.626Z,30.95
2022-08-20T15:29:23.717Z,31.70
2022-08-20T15:31:55.752Z,32.62
2022-08-20T15:34:27.716Z,32.04
2022-08-20T15:37:00.475Z,32.59
2022-08-20T15:39:32.657Z,32.11
2022-08-20T15:42:05.681Z,33.13
2022-08-20T15:44:37.966Z,32.74
2022-08-20T15:47:28.362Z,32.93
2022-08-20T15:50:14.009Z,33.29
2022-08-20T15:52:46.576Z,33.14
2022-08-20T15:55:18.634Z,33.48
2022-08-20T15:58:11.019Z,32.97
2022-08-20T16:01:24.850Z,34.14
2022-08-20T16:04:52.920Z,33.75
2022-08-20T16:07:50.647Z,33.95
2022-08-20T16:11:11.543Z,34.47
2022-08-20T16:13:55.559Z,34.45
2022-08-20T16:16:39.297Z,34.22
2022-08-20T16:19:47.072Z,33.76
2022-08-20T16:22:20.239Z,34.04
2022-08-20T16:24:52.359Z,34.13
2022-08-20T16:27:52.984Z,33.53
2022-08-20T16:30:41.966Z,33.87
2022-08-20T16:33:27.909Z,34.10
2022-08-20T16:36:11.261Z,34.23
2022-08-20T16:38:49.830Z,35.47
2022-08-20T16:41:43.673Z,35.88
2022-08-20T16:44:33.676Z,35.58
2022-08-20T16:47:20.941Z,35.19
2022-08-20T16:50:22.914Z,35.86
2022-08-20T16:52:55.058Z,36.36
2022-08-20T16:55:27.128Z,35.98
2022-08-20T16:57:59.472Z,36.07
2022-08-20T17:00:45.382Z,36.85
2022-08-20T17:03:31.360Z,37.20
2022-08-20T17:06:24.390Z,37.10
2022-08-20T17:08:56.529Z,37.79
2022-08-20T17:11:33.263Z,38.11
2022-08-20T17:14:12.490Z,38.78
2022-08-20T17:16:52.611Z,38.58
2022-08-20T17:19:32.541Z,39.04
2022-08-20T17:22:14.778Z,39.26
2022-08-20T17:24:47.935Z,39.09
2022-08-20T17:27:49.444Z,39.49
2022-08-20T17:30:28.857Z,39.34
2022-08-20T17:33:08.986Z,39.57
2022-08-20T17:35:43.260Z,39.15
2022-08-20T17:38:38.107Z,39.38
2022-08-20T17:41:22.240Z,39.75
2022-08-20T17:44:04.751Z,39.66
2022-08-20T17:46:45.134Z,40.83
2022-08-20T17:49:43.900Z,40.52
2022-08-20T17:52:45.741Z,40.84
2022-08-20T17:55:19.177Z,41.45
2022-08-20T17:57:56.802Z,41.34
2022-08-20T18:00:29.678Z,41.70
2022-08-20T18:03:26.609Z,41.75
2022-08-20T18:06:08.702Z,41.74
2022-08-20T18:08:58.001Z,42.01
2022-08-20T18:11:37.603Z,42.17
2022-08-20T18:14:34.273Z,42.15
2022-08-20T18:17:51.378Z,42.38
2022-08-20T18:20:45.043Z,42.41
2022-08-20T18:23:41.414Z,42.63
2022-08-20T18:26:26.397Z,43.07
2022-08-20T18:29:12.801Z,43.61
2022-08-20T18:31:50.646Z,43.79
2022-08-20T18:34:28.799Z,43.92
2022-08-20T18:37:05.496Z,43.96
2022-08-20T18:39:44.759Z,44.33
2022-08-20T18:42:45.335Z,44.93
2022-08-20T18:45:34.536Z,44.53
2022-08-20T18:48:06.895Z,45.00
2022-08-20T18:50:38.753Z,45.08
2022-08-20T18:53:22.350Z,45.37
2022-08-20T18:56:08.750Z,45.92
2022-08-20T18:59:06.856Z,45.68
2022-08-20T19:01:42.508Z,46.10
2022-08-20T19:04:32.067Z,46.31
2022-08-20T19:07:06.481Z,46.98
2022-08-20T19:10:12.939Z,46.76
2022-08-20T19:13:46.267Z,47.37
2022-08-20T19:16:53.459Z,48.11
2022-08-20T19:19:30.802Z,47.95
2022-08-20T19:22:05.409Z,48.57
2022-08-20T19:24:43.571Z,48.47
2022-08-20T19:27:17.269Z,48.53
2022-08-20T19:29:56.924Z,48.47
2022-08-20T19:32:32.559Z,48.61
2022-08-20T19:35:08.190Z,48.49
2022-08-20T19:37:50.823Z,48.96
2022-08-20T19:40:38.985Z,49.00
2022-08-20T19:43:19.459Z,49.18
2022-08-20T19:45:54.544Z,49.38
2022-08-20T19:48:42.613Z,49.79
2022-08-20T19:51:31.459Z,49.74
2022-08-20T19:54:03.922Z,49.22
2022-08-20T19:56:41.418Z,49.42
2022-08-20T19:59:21.197Z,49.31
2022-08-20T20:02:20.084Z,48.29
2022-08-20T20:04:55.485Z,48.16
2022-08-20T20:07:46.483Z,48.27
2022-08-20T20:10:31.774Z,47.80
2022-08-20T20:13:11.534Z,47.31
2022-08-20T20:15:44.452Z,47.38
2022-08-20T20:18:16.451Z,47.36
2022-08-20T20:20:58.228Z,47.11
2022-08-20T20:23:41.714Z,46.27
2022-08-20T20:26:20.438Z,46.47
2022-08-20T20:29:09.794Z,45.54
2022-08-20T20:32:00.074Z,45.61
2022-08-20T20:34:37.470Z,46.12
2022-08-20T20:37:49.565Z,46.76
2022-08-20T20:40:28.988Z,46.49
2022-08-20T20:43:08.892Z,46.20
2022-08-20T20:45:45.189Z,46.59
2022-08-20T20:48:25.866Z,46.50
2022-08-20T20:50:58.379Z,46.97
2022-08-20T20:53:49.561Z,46.90
2022-08-20T20:56:30.604Z,46.72
2022-08-20T20:59:06.812Z,47.26
2022-08-20T21:01:49.344Z,47.26
2022-08-20T21:04:24.908Z,47.20
2022-08-20T21:06:59.598Z,47.44
2022-08-20T21:09:31.686Z,47.14
2022-08-20T21:12:04.658Z,47.86
2022-08-20T21:14:37.135Z,47.85
2022-08-20T21:17:13.641Z,47.21
2022-08-20T21:19:45.726Z,47.21
2022-08-20T21:22:19.402Z,47.73
2022-08-20T21:24:51.570Z,47.71
2022-08-20T21:27:27.274Z,47.57
2022-08-20T21:29:59.307Z,47.63
2022-08-20T21:32:31.298Z,47.85
2022-08-20T21:35:03.613Z,47.85
2022-08-20T21:37:36.165Z,47.54
2022-08-20T21:40:10.161Z,47.84
2022-08-20T21:42:44.235Z,48.12
2022-08-20T21:45:18.523Z,48.14
2022-08-20T21:47:52.144Z,47.68
2022-08-20T21:50:25.103Z,47.55
2022-08-20T21:52:59.322Z,48.10
2022-08-20T21:55:39.196Z,48.19
2022-08-20T21:58:12.579Z,48.89
2022-08-20T22:01:01.490Z,49.00
2022-08-20T22:03:38.495Z,48.98
2022-08-20T22:06:14.536Z,49.27
2022-08-20T22:08:46.583Z,49.25
2022-08-20T22:11:18.784Z,49.44
2022-08-20T22:13:51.226Z,49.76
2022-08-20T22:16:23.665Z,49.31
2022-08-20T22:18:55.608Z,49.77
2022-08-20T22:21:32.766Z,49.75
2022-08-20T22:24:08.885Z,49.54
2022-08-20T22:26:41.834Z,49.97
2022-08-20T22:29:13.855Z,50.50
2022-08-20T22:31:46.194Z,50.11
2022-08-20T22:34:20.937Z,50.41
2022-08-20T22:36:54.245Z,50.39
2022-08-20T22:39:26.290Z,51.02
2022-08-20T22:41:58.985Z,51.77
2022-08-20T22:44:31.034Z,51.99
2022-08-20T22:47:07.319Z,52.24
2022-08-20T22:49:41.627Z,52.67
2022-08-20T22:52:13.702Z,52.58
2022-08-20T22:54:45.909Z,52.63
2022-08-20T22:57:20.345Z,53.47
2022-08-20T22:59:53.267Z,53.31
2022-08-20T23:02:25.796Z,53.32
2022-08-20T23:04:57.892Z,53.30
2022-08-20T23:07:30.285Z,53.17
2022-08-20T23:10:02.318Z,53.58
2022-08-20T23:12:34.327Z,54.01
2022-08-20T23:15:07.737Z,54.14
2022-08-20T23:17:40.006Z,54.45
2022-08-20T23:20:15.332Z,54.10
2022-08-20T23:22:47.302Z,54.32
2022-08-20T23:25:19.278Z,53.98
2022-08-20T23:27:55.215Z,54.34
2022-08-20T23:30:28.068Z,54.21
2022-08-20T23:33:01.724Z,53.88
2022-08-20T23:35:33.955Z,53.70
2022-08-20T23:38:06.642Z,54.02
2022-08-20T23:40:38.915Z,54.37
2022-08-20T23:43:11.118Z,54.64
2022-08-20T23:45:43.177Z,54.67
2022-08-20T23:48:15.161Z,54.88
2022-08-20T23:50:47.152Z,55.19
2022-08-20T23:53:19.136Z,54.93
2022-08-20T23:55:51.098Z,55.22
2022-08-20T23:58:23.086Z,56.17
